createdAt,value
2023-03-21T00:00:26.924Z,3.55
2023-03-21T00:01:12.843Z,3.58
2023-03-21T00:01:54.889Z,4.00
2023-03-21T00:02:36.607Z,3.75
2023-03-21T00:03:18.327Z,3.90
2023-03-21T00:04:00.440Z,4.10
2023-03-21T00:05:51.812Z,3.63
2023-03-21T00:06:33.616Z,3.70
2023-03-21T00:07:15.502Z,3.58
2023-03-21T00:07:57.148Z,4.00
2023-03-21T00:08:40.216Z,3.33
2023-03-21T00:09:22.201Z,3.22
2023-03-21T00:10:14.386Z,4.00
2023-03-21T00:11:01.250Z,3.42
2023-03-21T00:11:42.971Z,3.30
2023-03-21T00:12:24.648Z,3.70
2023-03-21T00:13:06.367Z,3.50
2023-03-21T00:13:48.343Z,3.60
2023-03-21T00:14:30.871Z,3.50
2023-03-21T00:15:12.975Z,3.67
2023-03-21T00:16:05.210Z,3.90
2023-03-21T00:18:03.742Z,3.47
2023-03-21T00:18:52.684Z,4.00
2023-03-21T00:19:38.557Z,3.90
2023-03-21T00:20:20.720Z,4.18
2023-03-21T00:21:37.774Z,4.05
2023-03-21T00:22:08.906Z,3.83
2023-03-21T00:22:52.337Z,3.90
2023-03-21T00:23:34.231Z,4.03
2023-03-21T00:24:16.464Z,4.00
2023-03-21T00:24:58.136Z,4.00
2023-03-21T00:25:40.207Z,4.43
2023-03-21T00:26:22.559Z,3.92
2023-03-21T00:27:26.870Z,4.13
2023-03-21T00:28:08.597Z,4.10
2023-03-21T00:28:50.928Z,4.13
2023-03-21T00:29:35.534Z,4.20
2023-03-21T00:30:17.505Z,3.70
2023-03-21T00:31:00.367Z,3.95
2023-03-21T00:31:42.193Z,4.20
2023-03-21T00:32:24.289Z,4.18
2023-03-21T00:33:19.818Z,4.10
2023-03-21T00:34:03.724Z,4.00
2023-03-21T00:34:59.668Z,4.20
2023-03-21T00:35:58.324Z,4.47
2023-03-21T00:36:44.076Z,4.97
2023-03-21T00:37:28.310Z,4.70
2023-03-21T00:38:10.779Z,4.57
2023-03-21T00:38:52.768Z,4.40
2023-03-21T00:39:35.373Z,4.40
2023-03-21T00:40:26.593Z,4.13
2023-03-21T00:41:25.804Z,4.00
2023-03-21T00:42:07.868Z,3.88
2023-03-21T00:42:51.823Z,3.22
2023-03-21T00:43:33.911Z,3.15
2023-03-21T00:44:16.266Z,3.10
2023-03-21T00:44:57.920Z,3.40
2023-03-21T00:45:39.564Z,3.22
2023-03-21T00:46:23.295Z,2.75
2023-03-21T00:47:07.807Z,3.10
2023-03-21T00:47:50.537Z,3.45
2023-03-21T00:48:32.420Z,3.03
2023-03-21T00:49:14.595Z,3.28
2023-03-21T00:49:57.400Z,3.05
2023-03-21T00:50:39.816Z,3.17
2023-03-21T00:51:26.419Z,2.92
2023-03-21T00:52:18.718Z,3.28
2023-03-21T00:53:07.118Z,2.63
2023-03-21T00:53:48.753Z,2.90
2023-03-21T00:54:30.590Z,2.85
2023-03-21T00:55:18.205Z,3.00
2023-03-21T00:55:59.881Z,2.92
2023-03-21T00:56:41.564Z,2.83
2023-03-21T00:57:37.527Z,2.30
2023-03-21T00:58:21.488Z,2.70
2023-03-21T00:59:04.492Z,2.78
2023-03-21T00:59:46.193Z,2.63
2023-03-21T01:00:27.992Z,2.85
2023-03-21T01:01:11.098Z,2.90
2023-03-21T01:01:54.469Z,2.97
2023-03-21T01:02:37.916Z,3.00
2023-03-21T01:03:24.771Z,3.00
2023-03-21T01:04:13.237Z,2.92
2023-03-21T01:04:55.014Z,2.50
2023-03-21T01:06:13.490Z,2.58
2023-03-21T01:06:55.526Z,2.45
2023-03-21T01:07:37.215Z,2.70
2023-03-21T01:08:26.794Z,2.50
2023-03-21T01:09:17.262Z,2.55
2023-03-21T01:09:58.941Z,2.80
2023-03-21T01:10:43.148Z,2.60
2023-03-21T01:11:27.189Z,3.10
2023-03-21T01:12:08.909Z,2.90
2023-03-21T01:12:52.105Z,2.90
2023-03-21T01:13:36.396Z,2.72
2023-03-21T01:14:23.495Z,3.00
2023-03-21T01:15:07.222Z,2.70
2023-03-21T01:15:54.496Z,2.60
2023-03-21T01:16:37.266Z,3.22
2023-03-21T01:17:18.989Z,2.95
2023-03-21T01:18:01.168Z,3.00
2023-03-21T01:18:42.994Z,2.60
2023-03-21T01:19:44.168Z,2.85
2023-03-21T01:20:30.227Z,2.90
2023-03-21T01:21:13.952Z,3.05
2023-03-21T01:21:56.084Z,2.97
2023-03-21T01:22:38.848Z,2.97
2023-03-21T01:23:20.627Z,3.15
2023-03-21T01:24:02.883Z,2.95
2023-03-21T01:24:53.796Z,2.90
2023-03-21T01:25:37.387Z,2.90
2023-03-21T01:26:19.734Z,2.90
2023-03-21T01:27:02.672Z,2.97
2023-03-21T01:27:44.435Z,3.05
2023-03-21T01:28:28.211Z,3.03
2023-03-21T01:29:10.115Z,3.30
2023-03-21T01:29:51.771Z,3.05
2023-03-21T01:30:40.202Z,3.15
2023-03-21T01:31:23.548Z,3.03
2023-03-21T01:32:06.137Z,2.88
2023-03-21T01:32:48.030Z,3.55
2023-03-21T01:33:30.836Z,2.83
2023-03-21T01:34:12.580Z,3.20
2023-03-21T01:34:54.585Z,2.72
2023-03-21T01:35:49.174Z,3.58
2023-03-21T01:36:35.405Z,3.03
2023-03-21T01:37:21.320Z,3.00
2023-03-21T01:38:05.484Z,3.15
2023-03-21T01:38:48.023Z,3.15
2023-03-21T01:39:29.845Z,2.72
2023-03-21T01:40:18.039Z,3.05
2023-03-21T01:41:17.082Z,2.95
2023-03-21T01:42:01.627Z,3.28
2023-03-21T01:42:43.836Z,3.05
2023-03-21T01:43:34.376Z,3.00
2023-03-21T01:44:19.244Z,2.90
2023-03-21T01:45:05.224Z,3.40
2023-03-21T01:46:21.368Z,3.17
2023-03-21T01:47:21.420Z,3.80
2023-03-21T01:48:39.540Z,3.30
2023-03-21T01:49:38.678Z,2.88
2023-03-21T01:50:27.588Z,3.53
2023-03-21T01:51:50.767Z,3.28
2023-03-21T01:52:39.415Z,2.95
2023-03-21T01:53:30.089Z,2.70
2023-03-21T01:54:17.058Z,3.25
2023-03-21T01:55:00.470Z,3.00
2023-03-21T01:55:43.324Z,3.10
2023-03-21T01:56:47.883Z,3.10
2023-03-21T01:57:45.090Z,2.75
2023-03-21T01:58:31.982Z,2.90
2023-03-21T01:59:23.855Z,3.58
2023-03-21T02:00:36.512Z,2.63
2023-03-21T02:01:34.626Z,2.63
2023-03-21T02:02:28.355Z,2.92
2023-03-21T02:03:38.494Z,3.35
2023-03-21T02:04:40.984Z,2.67
2023-03-21T02:05:48.744Z,3.00
2023-03-21T02:06:37.293Z,2.60
2023-03-21T02:07:36.749Z,2.83
2023-03-21T02:08:23.983Z,3.03
2023-03-21T02:09:14.791Z,3.53
2023-03-21T02:09:58.697Z,3.28
2023-03-21T02:10:43.984Z,3.20
2023-03-21T02:11:29.911Z,3.08
2023-03-21T02:12:12.065Z,3.40
2023-03-21T02:12:55.679Z,3.63
2023-03-21T02:13:37.899Z,2.67
2023-03-21T02:14:28.903Z,3.05
2023-03-21T02:15:31.620Z,3.03
2023-03-21T02:16:52.344Z,3.55
2023-03-21T02:17:44.722Z,3.10
2023-03-21T02:18:47.842Z,3.17
2023-03-21T02:20:22.280Z,3.05
2023-03-21T02:21:20.301Z,3.40
2023-03-21T02:22:33.189Z,3.30
2023-03-21T02:24:07.950Z,3.90
2023-03-21T02:25:32.790Z,3.58
2023-03-21T02:27:04.047Z,3.63
2023-03-21T02:28:11.636Z,3.20
2023-03-21T02:29:15.453Z,3.22
2023-03-21T02:30:26.486Z,3.35
2023-03-21T02:31:36.367Z,3.15
2023-03-21T02:32:38.220Z,2.80
2023-03-21T02:33:37.780Z,2.90
2023-03-21T02:34:53.145Z,3.25
2023-03-21T02:35:56.825Z,2.85
2023-03-21T02:37:05.691Z,2.90
2023-03-21T02:38:00.654Z,2.60
2023-03-21T02:38:47.447Z,3.05
2023-03-21T02:39:36.942Z,3.00
2023-03-21T02:40:32.296Z,2.97
2023-03-21T02:41:40.197Z,2.80
2023-03-21T02:42:28.347Z,2.70
2023-03-21T02:43:26.576Z,2.45
2023-03-21T02:44:44.620Z,2.42
2023-03-21T02:45:38.756Z,2.85
2023-03-21T02:46:42.905Z,3.75
2023-03-21T02:47:34.834Z,2.47
2023-03-21T02:48:44.410Z,2.95
2023-03-21T02:49:38.318Z,2.70
2023-03-21T02:50:27.607Z,2.70
2023-03-21T02:51:14.545Z,2.78
2023-03-21T02:52:05.483Z,2.55
2023-03-21T02:52:57.490Z,3.03
2023-03-21T02:53:43.868Z,3.20
2023-03-21T02:54:41.836Z,2.75
2023-03-21T02:55:32.040Z,2.60
2023-03-21T02:56:20.030Z,2.83
2023-03-21T02:57:08.199Z,2.50
2023-03-21T02:57:52.482Z,2.70
2023-03-21T02:58:35.297Z,2.85
2023-03-21T02:59:21.461Z,2.28
2023-03-21T03:00:16.283Z,2.67
2023-03-21T03:01:00.505Z,2.10
2023-03-21T03:01:47.373Z,2.50
2023-03-21T03:02:30.818Z,2.50
2023-03-21T03:03:24.828Z,2.67
2023-03-21T03:04:27.408Z,2.70
2023-03-21T03:05:21.349Z,2.90
2023-03-21T03:06:17.053Z,2.97
2023-03-21T03:07:44.457Z,2.58
2023-03-21T03:09:23.939Z,3.42
2023-03-21T03:10:27.257Z,3.00
2023-03-21T03:11:14.880Z,2.90
2023-03-21T03:12:11.193Z,2.75
2023-03-21T03:13:13.047Z,2.50
2023-03-21T03:14:38.452Z,3.35
2023-03-21T03:15:33.391Z,2.90
2023-03-21T03:16:37.016Z,2.70
2023-03-21T03:17:39.242Z,3.05
2023-03-21T03:18:29.405Z,3.17
2023-03-21T03:19:41.675Z,2.90
2023-03-21T03:20:39.119Z,2.33
2023-03-21T03:21:39.764Z,2.78
2023-03-21T03:22:34.561Z,2.40
2023-03-21T03:23:28.049Z,2.40
2023-03-21T03:24:48.333Z,3.00
2023-03-21T03:25:43.822Z,2.53
2023-03-21T03:26:37.065Z,2.72
2023-03-21T03:27:27.007Z,2.90
2023-03-21T03:28:09.573Z,2.58
2023-03-21T03:28:56.101Z,2.88
2023-03-21T03:29:42.368Z,3.00
2023-03-21T03:30:39.237Z,2.97
2023-03-21T03:31:28.251Z,2.78
2023-03-21T03:32:18.194Z,2.92
2023-03-21T03:33:03.091Z,2.55
2023-03-21T03:33:48.226Z,2.90
2023-03-21T03:34:34.894Z,2.88
2023-03-21T03:35:20.140Z,3.47
2023-03-21T03:36:06.522Z,2.65
2023-03-21T03:36:56.235Z,2.92
2023-03-21T03:37:40.702Z,2.95
2023-03-21T03:38:24.091Z,3.03
2023-03-21T03:39:12.482Z,3.10
2023-03-21T03:40:01.747Z,3.15
2023-03-21T03:40:49.034Z,3.30
2023-03-21T03:42:12.627Z,3.00
2023-03-21T03:43:08.964Z,3.10
2023-03-21T03:43:57.805Z,3.30
2023-03-21T03:44:42.021Z,2.80
2023-03-21T03:45:31.376Z,3.17
2023-03-21T03:46:24.173Z,3.25
2023-03-21T03:47:22.964Z,2.72
2023-03-21T03:48:26.290Z,3.38
2023-03-21T03:49:15.430Z,3.17
2023-03-21T03:50:09.548Z,3.08
2023-03-21T03:51:22.908Z,3.15
2023-03-21T03:52:32.449Z,3.15
2023-03-21T03:53:30.467Z,2.80
2023-03-21T03:54:18.813Z,3.00
2023-03-21T03:55:00.828Z,2.67
2023-03-21T03:55:47.429Z,2.88
2023-03-21T03:56:31.749Z,2.83
2023-03-21T03:57:14.566Z,2.88
2023-03-21T03:57:56.874Z,2.80
2023-03-21T03:58:45.673Z,2.88
2023-03-21T03:59:29.764Z,2.80
2023-03-21T04:00:27.564Z,2.80
2023-03-21T04:01:09.471Z,2.45
2023-03-21T04:01:51.896Z,2.67
2023-03-21T04:02:33.926Z,2.90
2023-03-21T04:03:18.596Z,3.00
2023-03-21T04:04:12.243Z,3.20
2023-03-21T04:04:57.841Z,2.63
2023-03-21T04:05:39.753Z,2.90
2023-03-21T04:06:22.151Z,2.50
2023-03-21T04:07:06.364Z,2.97
2023-03-21T04:07:50.918Z,3.08
2023-03-21T04:08:37.592Z,3.25
2023-03-21T04:09:23.550Z,2.95
2023-03-21T04:10:11.171Z,2.80
2023-03-21T04:10:56.573Z,3.30
2023-03-21T04:11:38.999Z,3.30
2023-03-21T04:12:21.074Z,3.65
2023-03-21T04:13:41.350Z,2.60
2023-03-21T04:14:33.179Z,2.50
2023-03-21T04:15:20.700Z,3.28
2023-03-21T04:16:09.582Z,2.88
2023-03-21T04:16:52.182Z,3.40
2023-03-21T04:17:34.570Z,3.30
2023-03-21T04:18:16.419Z,3.17
2023-03-21T04:18:58.975Z,3.30
2023-03-21T04:19:40.689Z,3.60
2023-03-21T04:20:34.221Z,2.90
2023-03-21T04:21:18.689Z,3.38
2023-03-21T04:22:00.483Z,3.40
2023-03-21T04:22:42.509Z,3.53
2023-03-21T04:23:24.358Z,3.20
2023-03-21T04:24:07.436Z,2.85
2023-03-21T04:24:49.198Z,3.40
2023-03-21T04:25:34.830Z,3.28
2023-03-21T04:26:21.114Z,2.92
2023-03-21T04:27:22.910Z,3.35
2023-03-21T04:28:22.138Z,3.00
2023-03-21T04:29:24.171Z,3.25
2023-03-21T04:30:26.244Z,3.00
2023-03-21T04:31:25.622Z,2.75
2023-03-21T04:32:17.749Z,3.15
2023-03-21T04:33:05.970Z,3.33
2023-03-21T04:33:50.025Z,3.10
2023-03-21T04:34:32.054Z,3.72
2023-03-21T04:35:16.714Z,3.70
2023-03-21T04:35:59.340Z,3.85
2023-03-21T04:36:47.822Z,3.78
2023-03-21T04:37:33.841Z,3.85
2023-03-21T04:38:16.389Z,3.00
2023-03-21T04:39:01.559Z,3.38
2023-03-21T04:39:46.384Z,3.60
2023-03-21T04:40:28.274Z,3.42
2023-03-21T04:41:10.727Z,3.33
2023-03-21T04:41:52.444Z,3.42
2023-03-21T04:42:35.323Z,3.60
2023-03-21T04:43:17.230Z,3.20
2023-03-21T04:43:58.956Z,3.30
2023-03-21T04:44:41.355Z,2.92
2023-03-21T04:45:23.416Z,2.55
2023-03-21T04:46:06.273Z,3.55
2023-03-21T04:46:48.005Z,3.17
2023-03-21T04:47:30.318Z,3.33
2023-03-21T04:48:14.259Z,3.10
2023-03-21T04:48:56.053Z,3.00
2023-03-21T04:49:37.742Z,3.05
2023-03-21T04:50:19.593Z,3.08
2023-03-21T04:51:01.263Z,2.92
2023-03-21T04:51:45.184Z,3.20
2023-03-21T04:52:30.034Z,2.90
2023-03-21T04:53:12.445Z,2.65
2023-03-21T04:53:57.467Z,2.80
2023-03-21T04:54:39.302Z,3.33
2023-03-21T04:55:21.650Z,3.15
2023-03-21T04:56:03.728Z,2.60
2023-03-21T04:56:45.531Z,2.80
2023-03-21T04:57:27.780Z,2.88
2023-03-21T04:58:09.489Z,3.13
2023-03-21T04:58:51.329Z,2.85
2023-03-21T04:59:34.048Z,2.97
2023-03-21T05:00:16.756Z,2.83
2023-03-21T05:00:58.448Z,3.13
2023-03-21T05:01:43.604Z,3.08
2023-03-21T05:02:25.629Z,3.17
2023-03-21T05:03:09.127Z,3.10
2023-03-21T05:03:51.141Z,3.10
2023-03-21T05:04:32.821Z,3.03
2023-03-21T05:05:14.758Z,3.05
2023-03-21T05:05:56.531Z,2.80
2023-03-21T05:06:38.326Z,3.10
2023-03-21T05:07:20.188Z,3.10
2023-03-21T05:08:02.064Z,2.72
2023-03-21T05:08:44.134Z,2.92
2023-03-21T05:09:27.866Z,3.30
2023-03-21T05:10:12.005Z,3.10
2023-03-21T05:10:55.381Z,2.97
2023-03-21T05:11:41.188Z,3.00
2023-03-21T05:12:23.772Z,3.08
2023-03-21T05:13:05.648Z,3.20
2023-03-21T05:13:48.270Z,3.10
2023-03-21T05:14:30.261Z,2.88
2023-03-21T05:15:13.514Z,3.35
2023-03-21T05:15:55.466Z,3.05
2023-03-21T05:16:45.139Z,3.20
2023-03-21T05:17:28.512Z,3.50
2023-03-21T05:18:12.258Z,3.20
2023-03-21T05:19:13.910Z,2.95
2023-03-21T05:19:56.963Z,3.22
2023-03-21T05:20:43.031Z,3.20
2023-03-21T05:21:29.396Z,2.88
2023-03-21T05:22:14.259Z,3.30
2023-03-21T05:22:56.825Z,3.20
2023-03-21T05:23:38.881Z,3.25
2023-03-21T05:24:22.303Z,3.30
2023-03-21T05:25:06.417Z,3.80
2023-03-21T05:26:11.431Z,2.92
2023-03-21T05:27:03.998Z,3.22
2023-03-21T05:27:54.262Z,3.40
2023-03-21T05:28:40.214Z,3.13
2023-03-21T05:29:22.555Z,3.40
2023-03-21T05:30:18.193Z,3.33
2023-03-21T05:31:04.110Z,3.20
2023-03-21T05:31:46.240Z,3.30
2023-03-21T05:32:29.862Z,3.15
2023-03-21T05:33:12.649Z,3.10
2023-03-21T05:33:54.426Z,3.63
2023-03-21T05:34:36.201Z,3.40
2023-03-21T05:35:18.006Z,3.60
2023-03-21T05:36:00.021Z,3.00
2023-03-21T05:36:45.336Z,3.72
2023-03-21T05:37:28.353Z,2.95
2023-03-21T05:38:10.821Z,3.15
2023-03-21T05:39:03.770Z,3.20
2023-03-21T05:39:48.852Z,3.70
2023-03-21T05:40:47.689Z,3.25
2023-03-21T05:41:29.623Z,3.60
2023-03-21T05:42:12.736Z,3.17
2023-03-21T05:42:54.561Z,3.50
2023-03-21T05:43:38.250Z,3.60
2023-03-21T05:44:20.239Z,3.60
2023-03-21T05:45:02.163Z,3.30
2023-03-21T05:45:48.173Z,3.63
2023-03-21T05:46:31.456Z,3.53
2023-03-21T05:47:15.364Z,3.40
2023-03-21T05:48:00.260Z,3.20
2023-03-21T05:48:46.735Z,3.60
2023-03-21T05:49:31.739Z,3.35
2023-03-21T05:50:16.036Z,3.50
2023-03-21T05:51:04.127Z,3.60
2023-03-21T05:51:45.830Z,4.03
2023-03-21T05:52:29.585Z,3.30
2023-03-21T05:53:11.653Z,3.28
2023-03-21T05:53:53.353Z,3.60
2023-03-21T05:54:36.522Z,3.30
2023-03-21T05:55:19.576Z,3.35
2023-03-21T05:56:01.526Z,3.30
2023-03-21T05:57:09.506Z,3.58
2023-03-21T05:58:09.685Z,3.10
2023-03-21T05:58:51.574Z,3.45
2023-03-21T05:59:34.189Z,2.80
2023-03-21T06:00:17.963Z,2.83
2023-03-21T06:01:10.227Z,3.50
2023-03-21T06:01:55.492Z,4.20
2023-03-21T06:02:37.824Z,3.55
2023-03-21T06:03:24.001Z,3.97
2023-03-21T06:04:16.186Z,3.42
2023-03-21T06:04:58.386Z,3.78
2023-03-21T06:05:40.967Z,3.80
2023-03-21T06:06:28.381Z,2.90
2023-03-21T06:07:12.132Z,3.22
2023-03-21T06:07:55.518Z,3.20
2023-03-21T06:08:37.718Z,3.22
2023-03-21T06:09:22.589Z,3.42
2023-03-21T06:10:10.402Z,3.28
2023-03-21T06:11:00.958Z,3.25
2023-03-21T06:11:48.634Z,3.00
2023-03-21T06:12:33.121Z,3.10
2023-03-21T06:13:21.550Z,3.42
2023-03-21T06:14:04.029Z,3.10
2023-03-21T06:14:46.084Z,4.00
2023-03-21T06:15:35.713Z,3.58
2023-03-21T06:16:28.828Z,3.30
2023-03-21T06:17:10.652Z,3.50
2023-03-21T06:17:58.590Z,4.45
2023-03-21T06:18:40.987Z,5.20
2023-03-21T06:19:35.883Z,4.53
2023-03-21T06:20:22.097Z,4.43
2023-03-21T06:21:07.934Z,4.13
2023-03-21T06:21:49.847Z,4.07
2023-03-21T06:22:32.478Z,4.00
2023-03-21T06:23:15.835Z,3.78
2023-03-21T06:23:57.958Z,3.92
2023-03-21T06:24:39.656Z,3.53
2023-03-21T06:25:21.792Z,2.97
2023-03-21T06:26:04.151Z,3.35
2023-03-21T06:26:48.393Z,3.30
2023-03-21T06:27:30.436Z,3.17
2023-03-21T06:28:12.089Z,3.28
2023-03-21T06:28:55.836Z,3.40
2023-03-21T06:29:38.780Z,3.60
2023-03-21T06:30:22.792Z,3.63
2023-03-21T06:31:18.531Z,3.20
2023-03-21T06:32:00.673Z,3.60
2023-03-21T06:32:42.517Z,3.75
2023-03-21T06:33:28.317Z,3.75
2023-03-21T06:34:11.788Z,3.60
2023-03-21T06:34:53.938Z,3.35
2023-03-21T06:35:36.044Z,3.33
2023-03-21T06:36:19.202Z,4.05
2023-03-21T06:37:01.179Z,3.28
2023-03-21T06:37:49.222Z,4.13
2023-03-21T06:38:31.735Z,3.20
2023-03-21T06:39:13.878Z,3.65
2023-03-21T06:39:56.278Z,3.67
2023-03-21T06:40:39.296Z,3.30
2023-03-21T06:41:21.333Z,3.20
2023-03-21T06:42:14.598Z,3.60
2023-03-21T06:42:56.568Z,3.60
2023-03-21T06:43:39.198Z,3.50
2023-03-21T06:44:22.093Z,3.22
2023-03-21T06:45:11.919Z,3.15
2023-03-21T06:45:53.712Z,2.83
2023-03-21T06:46:36.151Z,3.40
2023-03-21T06:47:18.580Z,3.20
2023-03-21T06:48:01.568Z,3.15
2023-03-21T06:48:57.365Z,3.90
2023-03-21T06:49:41.089Z,4.18
2023-03-21T06:50:25.194Z,4.45
2023-03-21T06:51:07.415Z,6.25
2023-03-21T06:51:52.731Z,5.88
2023-03-21T06:52:35.816Z,6.03
2023-03-21T06:53:20.964Z,6.90
2023-03-21T06:54:25.783Z,10.38
2023-03-21T06:55:28.898Z,10.77
2023-03-21T06:56:14.378Z,9.07
2023-03-21T06:56:56.884Z,8.85
2023-03-21T06:57:42.998Z,8.07
2023-03-21T06:58:25.104Z,7.38
2023-03-21T06:59:08.507Z,7.10
2023-03-21T07:00:08.854Z,5.85
2023-03-21T07:00:54.819Z,4.57
2023-03-21T07:01:37.499Z,4.53
2023-03-21T07:02:22.043Z,5.03
2023-03-21T07:03:24.552Z,4.80
2023-03-21T07:04:06.474Z,4.53
2023-03-21T07:04:48.940Z,5.00
2023-03-21T07:05:37.193Z,4.22
2023-03-21T07:06:19.758Z,4.35
2023-03-21T07:07:01.493Z,4.55
2023-03-21T07:07:43.626Z,4.53
2023-03-21T07:08:25.690Z,4.80
2023-03-21T07:09:07.673Z,5.60
2023-03-21T07:09:49.742Z,7.72
2023-03-21T07:10:32.208Z,7.72
2023-03-21T07:11:21.222Z,12.30
2023-03-21T07:12:03.571Z,11.73
2023-03-21T07:13:01.253Z,11.23
2023-03-21T07:13:57.478Z,8.48
2023-03-21T07:14:39.210Z,8.98
2023-03-21T07:15:21.099Z,8.57
2023-03-21T07:16:03.005Z,9.23
2023-03-21T07:16:44.798Z,7.70
2023-03-21T07:17:28.290Z,6.88
2023-03-21T07:18:12.177Z,7.13
2023-03-21T07:18:54.329Z,7.55
2023-03-21T07:19:36.130Z,5.10
2023-03-21T07:20:18.007Z,6.85
2023-03-21T07:20:59.817Z,6.63
2023-03-21T07:21:41.451Z,5.82
2023-03-21T07:22:23.201Z,7.00
2023-03-21T07:23:05.226Z,6.63
2023-03-21T07:23:47.361Z,5.63
2023-03-21T07:24:30.804Z,5.85
2023-03-21T07:25:12.672Z,6.30
2023-03-21T07:25:55.871Z,8.02
2023-03-21T07:26:37.748Z,8.43
2023-03-21T07:27:21.241Z,8.63
2023-03-21T07:28:03.041Z,8.43
2023-03-21T07:28:45.643Z,7.78
2023-03-21T07:29:27.331Z,8.35
2023-03-21T07:30:10.826Z,7.25
2023-03-21T07:30:58.284Z,5.40
2023-03-21T07:31:40.598Z,5.13
2023-03-21T07:32:22.893Z,5.72
2023-03-21T07:33:05.893Z,5.88
2023-03-21T07:33:47.956Z,4.10
2023-03-21T07:34:33.170Z,4.93
2023-03-21T07:35:18.378Z,5.78
2023-03-21T07:36:00.636Z,5.05
2023-03-21T07:36:42.887Z,5.82
2023-03-21T07:37:24.723Z,5.95
2023-03-21T07:38:07.331Z,6.30
2023-03-21T07:38:49.220Z,5.78
2023-03-21T07:39:36.453Z,6.03
2023-03-21T07:40:18.659Z,4.82
2023-03-21T07:41:00.890Z,4.57
2023-03-21T07:41:46.135Z,3.80
2023-03-21T07:42:40.817Z,4.55
2023-03-21T07:43:23.022Z,4.63
2023-03-21T07:44:55.040Z,4.95
2023-03-21T07:45:37.077Z,4.45
2023-03-21T07:46:22.567Z,4.80
2023-03-21T07:47:06.001Z,4.10
2023-03-21T07:47:48.970Z,4.00
2023-03-21T07:48:31.991Z,3.58
2023-03-21T07:49:15.875Z,3.72
2023-03-21T07:49:57.723Z,3.63
2023-03-21T07:50:40.780Z,4.40
2023-03-21T07:51:22.460Z,3.72
2023-03-21T07:52:05.118Z,3.70
2023-03-21T07:52:47.820Z,3.30
2023-03-21T07:53:29.661Z,3.63
2023-03-21T07:54:11.404Z,3.83
2023-03-21T07:54:53.432Z,3.90
2023-03-21T07:55:35.733Z,3.85
2023-03-21T07:56:17.652Z,3.40
2023-03-21T07:56:59.380Z,3.42
2023-03-21T07:57:41.334Z,3.53
2023-03-21T07:58:24.665Z,3.10
2023-03-21T07:59:07.369Z,3.30
2023-03-21T07:59:49.285Z,3.15
2023-03-21T08:00:31.147Z,3.45
2023-03-21T08:01:13.047Z,3.17
2023-03-21T08:01:54.965Z,3.10
2023-03-21T08:02:36.800Z,3.03
2023-03-21T08:03:18.685Z,3.40
2023-03-21T08:04:00.415Z,11.52
2023-03-21T08:04:42.284Z,6.35
2023-03-21T08:05:29.245Z,4.80
2023-03-21T08:06:11.438Z,4.32
2023-03-21T08:06:53.516Z,4.40
2023-03-21T08:07:35.574Z,4.00
2023-03-21T08:08:17.452Z,3.90
2023-03-21T08:08:59.467Z,4.35
2023-03-21T08:09:43.514Z,3.35
2023-03-21T08:10:25.825Z,3.00
2023-03-21T08:11:07.992Z,3.17
2023-03-21T08:11:49.781Z,3.30
2023-03-21T08:12:31.511Z,2.75
2023-03-21T08:13:13.625Z,3.20
2023-03-21T08:13:56.307Z,2.72
2023-03-21T08:14:38.105Z,2.58
2023-03-21T08:15:20.280Z,2.60
2023-03-21T08:16:01.954Z,2.53
2023-03-21T08:16:55.544Z,2.40
2023-03-21T08:17:51.356Z,3.10
2023-03-21T08:18:33.103Z,3.10
2023-03-21T08:19:14.920Z,2.95
2023-03-21T08:19:56.669Z,2.80
2023-03-21T08:20:38.873Z,2.95
2023-03-21T08:21:20.575Z,2.78
2023-03-21T08:22:02.291Z,2.92
2023-03-21T08:22:44.985Z,2.95
2023-03-21T08:23:27.125Z,3.00
2023-03-21T08:24:08.888Z,2.90
2023-03-21T08:24:50.645Z,2.63
2023-03-21T08:25:33.183Z,2.22
2023-03-21T08:26:18.417Z,2.13
2023-03-21T08:27:01.439Z,1.90
2023-03-21T08:27:45.500Z,2.28
2023-03-21T08:28:27.681Z,2.90
2023-03-21T08:29:10.086Z,2.10
2023-03-21T08:29:51.791Z,2.15
2023-03-21T08:30:33.607Z,2.22
2023-03-21T08:31:15.575Z,3.28
2023-03-21T08:31:58.145Z,4.25
2023-03-21T08:32:41.676Z,3.28
2023-03-21T08:33:23.889Z,3.22
2023-03-21T08:34:05.938Z,3.75
2023-03-21T08:34:47.662Z,2.63
2023-03-21T08:35:29.710Z,2.25
2023-03-21T08:36:11.672Z,2.28
2023-03-21T08:36:54.521Z,2.15
2023-03-21T08:37:40.959Z,1.90
2023-03-21T08:38:22.775Z,1.83
2023-03-21T08:39:05.647Z,1.80
2023-03-21T08:39:47.685Z,2.13
2023-03-21T08:40:29.586Z,2.35
2023-03-21T08:41:11.877Z,2.03
2023-03-21T08:41:53.524Z,2.22
2023-03-21T08:42:35.600Z,2.05
2023-03-21T08:43:17.309Z,1.60
2023-03-21T08:43:59.128Z,1.80
2023-03-21T08:44:41.483Z,1.70
2023-03-21T08:45:23.835Z,1.52
2023-03-21T08:46:05.875Z,1.70
2023-03-21T08:46:47.755Z,1.55
2023-03-21T08:47:29.565Z,1.77
2023-03-21T08:48:11.305Z,1.70
2023-03-21T08:48:53.660Z,1.75
2023-03-21T08:49:36.033Z,1.63
2023-03-21T08:50:20.830Z,1.30
2023-03-21T08:51:02.553Z,1.55
2023-03-21T08:51:45.854Z,1.30
2023-03-21T08:52:28.085Z,1.40
2023-03-21T08:53:10.007Z,1.27
2023-03-21T08:53:51.825Z,1.10
2023-03-21T08:54:33.706Z,1.77
2023-03-21T08:55:17.734Z,1.63
2023-03-21T08:55:59.716Z,1.20
2023-03-21T08:56:41.454Z,1.10
2023-03-21T08:57:23.180Z,1.10
2023-03-21T08:58:06.536Z,1.38
2023-03-21T08:58:49.748Z,1.30
2023-03-21T08:59:31.567Z,1.70
2023-03-21T09:00:17.875Z,1.90
2023-03-21T09:00:59.582Z,1.67
2023-03-21T09:01:41.984Z,1.40
2023-03-21T09:02:23.972Z,1.67
2023-03-21T09:03:05.670Z,1.90
2023-03-21T09:03:47.418Z,1.77
2023-03-21T09:04:31.113Z,1.90
2023-03-21T09:05:13.041Z,2.20
2023-03-21T09:05:54.901Z,1.90
2023-03-21T09:06:48.752Z,1.40
2023-03-21T09:07:34.031Z,1.80
2023-03-21T09:08:15.812Z,1.50
2023-03-21T09:08:57.541Z,1.73
2023-03-21T09:09:39.770Z,1.40
2023-03-21T09:10:23.311Z,1.50
2023-03-21T09:11:05.434Z,1.52
2023-03-21T09:11:47.198Z,1.17
2023-03-21T09:12:29.055Z,1.52
2023-03-21T09:13:10.801Z,1.42
2023-03-21T09:13:52.502Z,1.30
2023-03-21T09:14:35.331Z,1.50
2023-03-21T09:15:21.735Z,1.30
2023-03-21T09:16:05.176Z,1.05
2023-03-21T09:16:47.073Z,1.60
2023-03-21T09:17:29.453Z,1.45
2023-03-21T09:18:22.160Z,1.23
2023-03-21T09:19:04.365Z,1.55
2023-03-21T09:19:49.681Z,1.70
2023-03-21T09:20:32.905Z,1.60
2023-03-21T09:21:17.271Z,1.30
2023-03-21T09:21:59.762Z,1.05
2023-03-21T09:22:42.849Z,1.10
2023-03-21T09:23:25.303Z,1.20
2023-03-21T09:24:07.512Z,1.60
2023-03-21T09:24:50.211Z,1.80
2023-03-21T09:25:32.547Z,1.20
2023-03-21T09:26:15.944Z,1.42
2023-03-21T09:26:58.484Z,1.65
2023-03-21T09:27:43.337Z,1.30
2023-03-21T09:28:25.273Z,1.30
2023-03-21T09:29:07.489Z,1.30
2023-03-21T09:29:49.963Z,1.30
2023-03-21T09:30:34.529Z,1.20
2023-03-21T09:31:21.646Z,1.75
2023-03-21T09:32:04.415Z,1.90
2023-03-21T09:32:49.541Z,1.40
2023-03-21T09:33:31.450Z,1.60
2023-03-21T09:34:15.307Z,1.65
2023-03-21T09:34:57.464Z,1.50
2023-03-21T09:35:39.412Z,1.45
2023-03-21T09:36:24.924Z,1.58
2023-03-21T09:37:13.672Z,1.60
2023-03-21T09:37:57.485Z,1.17
2023-03-21T09:38:40.631Z,1.27
2023-03-21T09:39:23.399Z,1.70
2023-03-21T09:40:08.892Z,1.27
2023-03-21T09:41:20.511Z,1.50
2023-03-21T09:42:22.069Z,1.30
2023-03-21T09:43:13.280Z,3.22
2023-03-21T09:44:01.206Z,2.10
2023-03-21T09:44:55.966Z,1.60
2023-03-21T09:45:50.313Z,1.40
2023-03-21T09:46:41.028Z,1.60
2023-03-21T09:47:33.091Z,1.60
2023-03-21T09:48:56.729Z,1.17
2023-03-21T09:49:44.975Z,1.10
2023-03-21T09:50:32.062Z,1.05
2023-03-21T09:51:18.658Z,1.40
2023-03-21T09:52:05.576Z,1.25
2023-03-21T09:53:00.931Z,1.50
2023-03-21T09:53:47.016Z,1.30
2023-03-21T09:54:33.483Z,1.40
2023-03-21T09:55:22.454Z,1.48
2023-03-21T09:56:05.548Z,0.90
2023-03-21T09:56:49.715Z,1.65
2023-03-21T09:57:41.792Z,1.52
2023-03-21T09:58:33.104Z,1.33
2023-03-21T09:59:41.196Z,1.42
2023-03-21T10:00:31.042Z,1.33
2023-03-21T10:01:28.281Z,1.00
2023-03-21T10:02:32.253Z,1.00
2023-03-21T10:03:26.243Z,1.00
2023-03-21T10:04:13.190Z,1.15
2023-03-21T10:04:55.770Z,1.17
2023-03-21T10:05:40.554Z,1.20
2023-03-21T10:06:28.773Z,1.20
2023-03-21T10:07:18.002Z,1.13
2023-03-21T10:08:24.720Z,1.30
2023-03-21T10:09:21.604Z,1.00
2023-03-21T10:10:04.603Z,1.35
2023-03-21T10:11:03.109Z,1.33
2023-03-21T10:11:55.918Z,1.58
2023-03-21T10:12:46.051Z,1.90
2023-03-21T10:13:35.904Z,1.30
2023-03-21T10:14:39.103Z,1.65
2023-03-21T10:15:23.257Z,1.50
2023-03-21T10:16:15.096Z,1.50
2023-03-21T10:17:04.813Z,1.48
2023-03-21T10:18:04.948Z,1.65
2023-03-21T10:18:59.446Z,1.42
2023-03-21T10:20:04.215Z,1.90
2023-03-21T10:20:50.001Z,1.60
2023-03-21T10:21:59.315Z,1.60
2023-03-21T10:23:02.621Z,1.70
2023-03-21T10:23:52.593Z,1.33
2023-03-21T10:24:55.980Z,1.30
2023-03-21T10:25:59.361Z,1.10
2023-03-21T10:26:52.668Z,1.58
2023-03-21T10:27:57.195Z,1.63
2023-03-21T10:28:53.040Z,1.35
2023-03-21T10:29:50.036Z,1.52
2023-03-21T10:30:43.709Z,1.40
2023-03-21T10:31:31.336Z,1.13
2023-03-21T10:32:27.500Z,1.63
2023-03-21T10:33:32.207Z,1.50
2023-03-21T10:35:06.882Z,1.45